This is the latest recevied weather packets stored in our database for station/object AD6NH. If no packets are shown the sender has not sent any weather packets the latest 10 day(s).
| Time | Temp. | Humidity | Pressure | Rain* | Wind** | Luminosity | Snow |
|---|---|---|---|---|---|---|---|
| 1777668422 | 23.33° C | 55% | 1013.9 hPa | 0 mm | - | - | - |
| 1777667822 | 23.89° C | 54% | 1013.9 hPa | 0 mm | - | - | - |
| 1777667222 | 23.89° C | 53% | 1013.9 hPa | 0 mm | - | - | - |
| 1777666622 | 23.89° C | 54% | 1013.9 hPa | 0 mm | - | - | - |
| 1777666022 | 25° C | 50% | 1013.9 hPa | 0 mm | - | - | - |
| 1777665422 | 23.33° C | 53% | 1014 hPa | 0 mm | - | - | - |
| 1777664822 | 23.89° C | 53% | 1014 hPa | 0 mm | - | - | - |
| 1777664223 | 22.78° C | 55% | 1014.2 hPa | 0 mm | - | - | - |
| 1777663623 | 22.78° C | 54% | 1014.4 hPa | 0 mm | - | - | - |
| 1777663023 | 22.22° C | 57% | 1014.6 hPa | 0 mm | - | - | - |
| 1777662423 | 22.78° C | 55% | 1014.9 hPa | 0 mm | - | - | - |
| 1777661823 | 21.67° C | 58% | 1015.1 hPa | 0 mm | - | - | - |
| 1777661223 | 21.67° C | 58% | 1015.2 hPa | 0 mm | - | - | - |
| 1777660623 | 20.56° C | 61% | 1015.4 hPa | 0 mm | - | - | - |
| 1777660023 | 22.22° C | 58% | 1015.4 hPa | 0 mm | - | - | - |
| 1777659422 | 21.11° C | 59% | 1015.6 hPa | 0 mm | - | - | - |
| 1777658823 | 20° C | 62% | 1015.7 hPa | 0 mm | - | - | - |
| 1777658223 | 19.44° C | 64% | 1015.8 hPa | 0 mm | - | - | - |
| 1777657623 | 19.44° C | 65% | 1015.9 hPa | 0 mm | - | - | - |
| 1777657023 | 18.89° C | 66% | 1016 hPa | 0 mm | - | - | - |
| 1777656422 | 18.33° C | 68% | 1016 hPa | 0 mm | - | - | - |
| 1777655822 | 18.33° C | 69% | 1015.9 hPa | 0 mm | - | - | - |
| 1777655222 | 18.89° C | 67% | 1016 hPa | 0 mm | - | - | - |
| 1777654623 | 17.78° C | 70% | 1016 hPa | 0 mm | - | - | - |
| 1777654022 | 17.78° C | 69% | 1016 hPa | 0 mm | - | - | - |
* Rain latest hour (hover to see other rain measurements)
** Current wind speed in m/s (hover to see current wind gust speed)